createdAt,value
2023-05-25T00:00:11.968Z,11.15
2023-05-25T00:02:39.728Z,14.57
2023-05-25T00:05:09.120Z,14.85
2023-05-25T00:07:36.066Z,32.58
2023-05-25T00:10:03.250Z,32.00
2023-05-25T00:12:30.056Z,30.38
2023-05-25T00:14:56.919Z,133.38
2023-05-25T00:17:24.379Z,12.52
2023-05-25T00:19:51.546Z,105.75
2023-05-25T00:22:18.479Z,110.82
2023-05-25T00:24:45.300Z,447.95
2023-05-25T00:27:12.137Z,27.65
2023-05-25T00:29:39.019Z,10.13
2023-05-25T00:32:06.221Z,113.13
2023-05-25T00:34:33.081Z,21.38
2023-05-25T00:36:59.900Z,10.23
2023-05-25T00:39:26.674Z,46.85
2023-05-25T00:41:53.525Z,12.23
2023-05-25T00:44:22.078Z,7.78
2023-05-25T00:46:50.801Z,12.13
2023-05-25T00:49:18.580Z,28.23
2023-05-25T00:51:48.727Z,33.53
2023-05-25T00:54:16.113Z,11.18
2023-05-25T00:56:46.786Z,7.50
2023-05-25T00:59:17.502Z,6.22
2023-05-25T01:01:44.728Z,10.50
2023-05-25T01:04:13.376Z,7.78
2023-05-25T01:06:40.300Z,10.60
2023-05-25T01:09:07.445Z,9.82
2023-05-25T01:11:38.299Z,8.07
2023-05-25T01:14:05.134Z,12.45
2023-05-25T01:16:32.106Z,8.25
2023-05-25T01:18:59.010Z,7.55
2023-05-25T01:21:27.069Z,11.27
2023-05-25T01:23:59.013Z,8.70
2023-05-25T01:26:27.305Z,11.30
2023-05-25T01:28:54.189Z,9.25
2023-05-25T01:31:22.508Z,35.25
2023-05-25T01:33:51.649Z,10.32
2023-05-25T01:36:19.396Z,8.80
2023-05-25T01:38:46.190Z,7.93
2023-05-25T01:41:13.029Z,9.38
2023-05-25T01:43:39.823Z,8.35
2023-05-25T01:46:20.011Z,8.13
2023-05-25T01:48:58.414Z,377.33
2023-05-25T01:51:33.141Z,372.40
2023-05-25T01:54:03.368Z,558.50
2023-05-25T01:56:30.417Z,463.30
2023-05-25T01:58:57.265Z,505.50
2023-05-25T02:01:24.155Z,577.22
2023-05-25T02:03:51.334Z,561.03
2023-05-25T02:06:18.270Z,586.95
2023-05-25T02:08:45.893Z,590.25
2023-05-25T02:11:16.183Z,604.42
2023-05-25T02:13:43.050Z,576.22
2023-05-25T02:16:10.009Z,570.40
2023-05-25T02:18:37.257Z,625.63
2023-05-25T02:21:04.166Z,613.90
2023-05-25T02:23:31.254Z,623.42
2023-05-25T02:25:58.159Z,569.05
2023-05-25T02:28:25.115Z,610.22
2023-05-25T02:30:52.072Z,569.15
2023-05-25T02:33:19.064Z,460.48
2023-05-25T02:35:46.319Z,515.63
2023-05-25T02:38:13.775Z,492.58
2023-05-25T02:40:40.786Z,443.88
2023-05-25T02:43:07.737Z,444.05
2023-05-25T02:45:34.880Z,526.80
2023-05-25T02:48:01.786Z,561.83
2023-05-25T02:50:28.648Z,514.67
2023-05-25T02:52:55.525Z,567.67
2023-05-25T02:55:23.112Z,509.27
2023-05-25T02:57:49.969Z,528.42
2023-05-25T03:00:17.269Z,579.42
2023-05-25T03:02:46.970Z,612.88
2023-05-25T03:05:14.107Z,521.80
2023-05-25T03:07:42.112Z,587.22
2023-05-25T03:10:10.211Z,526.25
2023-05-25T03:12:38.366Z,8.93
2023-05-25T03:15:05.745Z,35.33
2023-05-25T03:17:32.631Z,12.55
2023-05-25T03:19:59.623Z,8.65
2023-05-25T03:22:27.219Z,8.20
2023-05-25T03:24:54.015Z,9.52
2023-05-25T03:27:20.862Z,51.55
2023-05-25T03:29:50.133Z,188.23
2023-05-25T03:32:17.206Z,378.30
2023-05-25T03:34:45.088Z,369.33
2023-05-25T03:37:11.908Z,437.02
2023-05-25T03:39:38.727Z,10.95
2023-05-25T03:42:06.479Z,10.30
2023-05-25T03:44:33.298Z,13.60
2023-05-25T03:47:00.070Z,573.83
2023-05-25T03:49:28.073Z,577.42
2023-05-25T03:51:54.990Z,587.17
2023-05-25T03:54:21.864Z,576.22
2023-05-25T03:56:48.700Z,576.03
2023-05-25T03:59:15.634Z,584.35
2023-05-25T04:01:42.477Z,592.65
2023-05-25T04:04:09.419Z,592.17
2023-05-25T04:06:37.318Z,568.33
2023-05-25T04:09:04.834Z,581.20
2023-05-25T04:11:31.756Z,591.67
2023-05-25T04:13:59.744Z,593.58
2023-05-25T04:16:26.658Z,586.83
2023-05-25T04:18:53.506Z,593.88
2023-05-25T04:21:20.433Z,589.10
2023-05-25T04:23:47.244Z,581.03
2023-05-25T04:26:15.720Z,595.03
2023-05-25T04:28:42.582Z,591.88
2023-05-25T04:31:09.562Z,589.33
2023-05-25T04:33:38.938Z,597.60
2023-05-25T04:36:06.408Z,590.13
2023-05-25T04:38:33.270Z,589.45
2023-05-25T04:41:03.142Z,602.55
2023-05-25T04:43:30.033Z,600.47
2023-05-25T04:45:57.979Z,595.10
2023-05-25T04:48:25.008Z,589.15
2023-05-25T04:50:53.070Z,601.10
2023-05-25T04:53:20.655Z,598.72
2023-05-25T04:55:47.536Z,569.83
2023-05-25T04:58:15.217Z,590.33
2023-05-25T05:00:42.262Z,595.20
2023-05-25T05:03:09.990Z,570.80
2023-05-25T05:05:37.131Z,588.72
2023-05-25T05:08:04.416Z,603.53
2023-05-25T05:10:31.251Z,598.22
2023-05-25T05:12:58.059Z,597.33
2023-05-25T05:15:24.858Z,611.22
2023-05-25T05:17:51.955Z,595.10
2023-05-25T05:20:18.954Z,604.67
2023-05-25T05:22:46.016Z,598.20
2023-05-25T05:25:12.886Z,595.60
2023-05-25T05:27:39.650Z,590.78
2023-05-25T05:30:07.604Z,600.83
2023-05-25T05:32:34.582Z,611.10
2023-05-25T05:35:01.498Z,613.50
2023-05-25T05:37:28.338Z,594.85
2023-05-25T05:39:55.226Z,591.85
2023-05-25T05:42:22.054Z,594.75
2023-05-25T05:44:48.888Z,594.85
2023-05-25T05:47:15.759Z,601.90
2023-05-25T05:49:42.619Z,561.70
2023-05-25T05:52:10.267Z,623.25
2023-05-25T05:54:37.155Z,608.10
2023-05-25T05:57:04.126Z,641.63
2023-05-25T05:59:30.939Z,634.78
2023-05-25T06:01:57.780Z,642.75
2023-05-25T06:04:28.574Z,600.72
2023-05-25T06:06:55.778Z,615.88
2023-05-25T06:09:22.701Z,636.17
2023-05-25T06:11:49.558Z,683.92
2023-05-25T06:14:16.395Z,672.85
2023-05-25T06:16:43.836Z,684.13
2023-05-25T06:19:11.028Z,681.50
2023-05-25T06:21:37.954Z,679.53
2023-05-25T06:24:05.440Z,689.50
2023-05-25T06:26:32.440Z,707.13
2023-05-25T06:28:59.267Z,731.88
2023-05-25T06:31:26.455Z,782.80
2023-05-25T06:33:53.317Z,799.53
2023-05-25T06:36:20.260Z,834.33
2023-05-25T06:38:47.266Z,875.95
2023-05-25T06:41:15.313Z,916.42
2023-05-25T06:43:45.329Z,930.08
2023-05-25T06:46:18.019Z,931.00
2023-05-25T06:48:46.212Z,937.80
2023-05-25T06:51:13.260Z,925.92
2023-05-25T06:53:40.148Z,920.20
2023-05-25T06:56:07.088Z,927.08
2023-05-25T06:58:33.947Z,926.15
2023-05-25T07:01:01.289Z,916.38
2023-05-25T07:03:28.204Z,924.08
2023-05-25T07:05:55.023Z,921.80
2023-05-25T07:08:21.798Z,928.72
2023-05-25T07:10:50.137Z,937.10
2023-05-25T07:13:17.397Z,962.90
2023-05-25T07:15:44.528Z,967.33
2023-05-25T07:18:12.677Z,838.20
2023-05-25T07:20:42.397Z,677.28
2023-05-25T07:23:10.336Z,598.45
2023-05-25T07:25:38.497Z,506.73
2023-05-25T07:28:05.939Z,392.58
2023-05-25T07:30:32.970Z,362.90
2023-05-25T07:33:00.265Z,337.75
2023-05-25T07:35:27.147Z,286.65
2023-05-25T07:37:58.437Z,358.10
2023-05-25T07:40:25.291Z,338.38
2023-05-25T07:42:52.307Z,345.77
2023-05-25T07:45:19.126Z,383.65
2023-05-25T07:47:45.956Z,455.60
2023-05-25T07:50:13.557Z,489.98
2023-05-25T07:52:40.477Z,501.90
2023-05-25T07:55:07.814Z,509.27
2023-05-25T07:57:34.801Z,493.13
2023-05-25T08:00:01.737Z,500.10
2023-05-25T08:02:28.678Z,439.70
2023-05-25T08:04:56.194Z,336.65
2023-05-25T08:07:24.984Z,349.27
2023-05-25T08:09:51.838Z,310.98
2023-05-25T08:14:48.370Z,259.08
2023-05-25T08:17:15.237Z,227.20
2023-05-25T08:19:42.098Z,182.52
2023-05-25T08:22:08.965Z,186.93
2023-05-25T08:24:35.847Z,190.27
2023-05-25T08:27:02.793Z,154.80
2023-05-25T08:29:29.720Z,267.60
2023-05-25T08:31:56.659Z,154.10
2023-05-25T08:34:23.550Z,141.48
2023-05-25T08:36:50.630Z,84.80
2023-05-25T08:39:18.834Z,59.97
2023-05-25T08:41:45.836Z,32.40
2023-05-25T08:44:14.593Z,36.17
2023-05-25T08:46:41.648Z,38.20
2023-05-25T08:49:12.738Z,34.95
2023-05-25T08:51:43.006Z,39.00
2023-05-25T08:54:12.262Z,35.03
2023-05-25T08:56:45.635Z,23.45
2023-05-25T08:59:35.211Z,15.43
2023-05-25T09:02:21.523Z,11.77
2023-05-25T09:04:48.439Z,9.93
2023-05-25T09:07:15.372Z,12.05
2023-05-25T09:09:42.398Z,10.77
2023-05-25T09:12:09.712Z,16.80
2023-05-25T09:14:37.927Z,17.15
2023-05-25T09:17:04.926Z,21.08
2023-05-25T09:19:31.818Z,15.20
2023-05-25T09:22:14.248Z,10.93
2023-05-25T09:24:44.447Z,37.78
2023-05-25T09:27:12.052Z,47.28
2023-05-25T09:29:38.967Z,43.05
2023-05-25T09:32:06.997Z,49.40
2023-05-25T09:34:36.894Z,79.07
2023-05-25T09:37:04.688Z,95.28
2023-05-25T09:39:31.889Z,90.13
2023-05-25T09:41:58.849Z,140.35
2023-05-25T09:44:25.690Z,200.30
2023-05-25T09:46:52.544Z,433.15
2023-05-25T09:49:20.000Z,566.17
2023-05-25T09:51:47.704Z,642.95
2023-05-25T09:54:14.653Z,809.58
2023-05-25T09:56:41.774Z,844.67
2023-05-25T09:59:08.600Z,845.97
2023-05-25T10:01:36.820Z,911.10
2023-05-25T10:04:05.205Z,920.95
2023-05-25T10:06:33.480Z,938.83
2023-05-25T10:09:00.728Z,916.58
2023-05-25T10:11:28.210Z,923.10
2023-05-25T10:13:56.041Z,945.58
2023-05-25T10:16:26.200Z,923.42
2023-05-25T10:19:25.491Z,905.03
2023-05-25T10:22:17.145Z,929.70
2023-05-25T10:24:58.180Z,895.10
2023-05-25T10:27:27.488Z,910.38
2023-05-25T10:29:58.745Z,947.75
2023-05-25T10:32:25.616Z,926.08
2023-05-25T10:34:52.792Z,939.15
2023-05-25T10:37:19.673Z,944.88
2023-05-25T10:39:46.576Z,960.15
2023-05-25T10:42:13.659Z,959.60
2023-05-25T10:44:41.946Z,955.92
2023-05-25T10:47:08.843Z,954.47
2023-05-25T10:49:51.160Z,938.17
2023-05-25T10:52:19.243Z,928.40
2023-05-25T10:54:47.456Z,917.78
2023-05-25T10:57:14.343Z,919.95
2023-05-25T10:59:42.047Z,902.92
2023-05-25T11:02:09.455Z,884.88
2023-05-25T11:04:39.537Z,895.58
2023-05-25T11:07:08.639Z,877.83
2023-05-25T11:09:38.835Z,895.85
2023-05-25T11:12:06.596Z,902.53
2023-05-25T11:14:34.105Z,913.85
2023-05-25T11:17:18.547Z,921.15
2023-05-25T11:19:53.937Z,904.88
2023-05-25T11:22:22.042Z,896.95
2023-05-25T11:24:52.540Z,910.25
2023-05-25T11:27:45.311Z,882.22
2023-05-25T11:30:12.999Z,885.65
2023-05-25T11:32:50.929Z,802.35
2023-05-25T11:35:17.922Z,878.08
2023-05-25T11:37:50.753Z,901.25
2023-05-25T11:40:17.632Z,890.28
2023-05-25T11:42:46.600Z,872.60
2023-05-25T11:45:14.793Z,890.58
2023-05-25T11:47:41.812Z,884.28
2023-05-25T11:50:15.490Z,893.20
2023-05-25T11:52:42.411Z,879.28
2023-05-25T11:55:14.390Z,875.95
2023-05-25T11:57:41.512Z,872.35
2023-05-25T12:00:11.363Z,862.72
2023-05-25T12:02:38.988Z,859.13
2023-05-25T12:05:08.558Z,861.17
2023-05-25T12:07:42.766Z,861.92
2023-05-25T12:10:13.132Z,869.33
2023-05-25T12:12:47.331Z,883.28
2023-05-25T12:15:17.593Z,887.70
2023-05-25T12:17:46.015Z,866.75
2023-05-25T12:20:13.704Z,871.90
2023-05-25T12:22:41.018Z,853.83
2023-05-25T12:25:09.009Z,870.10
2023-05-25T12:27:35.932Z,867.30
2023-05-25T12:30:03.383Z,861.28
2023-05-25T12:32:30.792Z,852.30
2023-05-25T12:35:07.217Z,865.53
2023-05-25T12:37:34.741Z,863.45
2023-05-25T12:40:01.628Z,875.67
2023-05-25T12:42:30.771Z,892.53
2023-05-25T12:44:58.047Z,875.85
2023-05-25T12:47:25.617Z,881.75
2023-05-25T12:50:13.701Z,869.65
2023-05-25T12:52:42.612Z,874.15
2023-05-25T12:55:26.167Z,890.42
2023-05-25T12:58:00.358Z,882.22
2023-05-25T13:00:37.695Z,869.08
2023-05-25T13:03:07.811Z,890.22
2023-05-25T13:05:37.006Z,875.03
2023-05-25T13:08:04.450Z,884.33
2023-05-25T13:10:32.937Z,889.85
2023-05-25T13:12:59.849Z,893.65
2023-05-25T13:15:27.157Z,886.78
2023-05-25T13:17:54.549Z,888.80
2023-05-25T13:20:22.686Z,877.03
2023-05-25T13:22:50.419Z,868.95
2023-05-25T13:25:17.255Z,877.75
2023-05-25T13:27:48.526Z,856.47
2023-05-25T13:30:15.900Z,850.08
2023-05-25T13:32:43.499Z,839.28
2023-05-25T13:35:18.371Z,839.72
2023-05-25T13:37:45.949Z,834.17
2023-05-25T13:40:13.572Z,832.15
2023-05-25T13:42:40.673Z,851.00
2023-05-25T13:45:08.372Z,825.55
2023-05-25T13:47:35.287Z,848.15
2023-05-25T13:50:02.154Z,861.65
2023-05-25T13:52:29.017Z,868.40
2023-05-25T13:54:55.911Z,836.20
2023-05-25T13:57:22.763Z,848.85
2023-05-25T13:59:49.652Z,833.70
2023-05-25T14:02:16.654Z,854.95
2023-05-25T14:04:43.561Z,862.53
2023-05-25T14:07:10.990Z,864.72
2023-05-25T14:09:37.940Z,873.72
2023-05-25T14:12:05.111Z,884.35
2023-05-25T14:14:33.023Z,884.40
2023-05-25T14:17:01.285Z,887.35
2023-05-25T14:19:28.452Z,878.75
2023-05-25T14:24:25.111Z,871.20
2023-05-25T14:26:51.993Z,878.80
2023-05-25T14:29:18.843Z,881.38
2023-05-25T14:31:46.588Z,853.15
2023-05-25T14:34:13.486Z,859.53
2023-05-25T14:36:40.365Z,862.72
2023-05-25T14:39:07.146Z,856.65
2023-05-25T14:41:33.938Z,851.47
2023-05-25T14:44:00.739Z,865.85
2023-05-25T14:46:27.626Z,855.83
2023-05-25T14:48:54.439Z,855.20
2023-05-25T14:51:21.208Z,844.63
2023-05-25T14:53:47.972Z,854.38
2023-05-25T14:56:14.800Z,866.75
2023-05-25T14:58:41.701Z,864.67
2023-05-25T15:01:08.611Z,847.75
2023-05-25T15:03:35.870Z,876.67
2023-05-25T15:06:02.905Z,871.83
2023-05-25T15:08:29.793Z,862.15
2023-05-25T15:10:56.841Z,880.75
2023-05-25T15:13:23.728Z,855.88
2023-05-25T15:15:54.583Z,858.28
2023-05-25T15:18:21.667Z,873.85
2023-05-25T15:20:48.599Z,854.53
2023-05-25T15:23:15.584Z,870.42
2023-05-25T15:25:42.574Z,873.47
2023-05-25T15:28:09.366Z,877.03
2023-05-25T15:30:36.419Z,885.28
2023-05-25T15:33:03.527Z,876.55
2023-05-25T15:35:33.419Z,898.83
2023-05-25T15:38:00.383Z,882.35
2023-05-25T15:40:27.584Z,888.53
2023-05-25T15:42:54.583Z,869.47
2023-05-25T15:45:21.461Z,885.17
2023-05-25T15:47:48.532Z,879.03
2023-05-25T15:50:16.054Z,884.92
2023-05-25T15:52:43.071Z,866.47
2023-05-25T15:55:10.048Z,859.80
2023-05-25T15:57:36.820Z,871.35
2023-05-25T16:00:05.598Z,860.50
2023-05-25T16:02:32.774Z,831.15
2023-05-25T16:04:59.534Z,860.00
2023-05-25T16:07:26.564Z,837.38
2023-05-25T16:09:53.561Z,784.20
2023-05-25T16:12:24.705Z,787.63
2023-05-25T16:14:52.467Z,839.45
2023-05-25T16:17:19.304Z,851.33
2023-05-25T16:19:48.247Z,841.58
2023-05-25T16:22:15.078Z,804.30
2023-05-25T16:24:41.933Z,806.15
2023-05-25T16:27:08.807Z,785.60
2023-05-25T16:29:35.764Z,771.58
2023-05-25T16:32:02.711Z,772.85
2023-05-25T16:34:29.594Z,745.20
2023-05-25T16:36:56.430Z,670.60
2023-05-25T16:39:23.491Z,687.35
2023-05-25T16:41:51.059Z,726.17
2023-05-25T16:44:18.060Z,753.97
2023-05-25T16:46:44.940Z,826.53
2023-05-25T16:49:11.910Z,849.30
2023-05-25T16:51:38.773Z,840.88
2023-05-25T16:54:05.750Z,835.25
2023-05-25T16:56:32.563Z,844.97
2023-05-25T16:58:59.390Z,821.28
2023-05-25T17:01:26.273Z,824.95
2023-05-25T17:03:53.230Z,825.35
2023-05-25T17:06:20.141Z,793.45
2023-05-25T17:08:47.211Z,807.35
2023-05-25T17:11:14.004Z,807.25
2023-05-25T17:13:41.401Z,820.10
2023-05-25T17:16:08.470Z,814.20
2023-05-25T17:18:35.369Z,800.63
2023-05-25T17:21:02.285Z,814.55
2023-05-25T17:23:29.190Z,804.70
2023-05-25T17:25:55.955Z,786.53
2023-05-25T17:28:22.778Z,773.65
2023-05-25T17:30:49.629Z,760.38
2023-05-25T17:33:16.471Z,767.50
2023-05-25T17:35:43.576Z,769.50
2023-05-25T17:38:10.847Z,756.00
2023-05-25T17:40:37.697Z,762.17
2023-05-25T17:43:04.519Z,758.95
2023-05-25T17:45:31.350Z,778.92
2023-05-25T17:47:58.860Z,761.95
2023-05-25T17:50:25.711Z,759.53
2023-05-25T17:52:52.683Z,753.65
2023-05-25T17:55:20.759Z,723.10
2023-05-25T17:57:47.629Z,751.92
2023-05-25T18:00:15.354Z,758.58
2023-05-25T18:02:42.350Z,747.13
2023-05-25T18:05:09.415Z,718.50
2023-05-25T18:07:36.199Z,727.97
2023-05-25T18:10:03.846Z,719.60
2023-05-25T18:12:30.799Z,726.80
2023-05-25T18:14:57.665Z,720.60
2023-05-25T18:17:24.573Z,727.20
2023-05-25T18:19:51.493Z,735.67
2023-05-25T18:22:18.616Z,710.75
2023-05-25T18:24:45.405Z,715.22
2023-05-25T18:27:12.337Z,707.78
2023-05-25T18:29:39.618Z,718.85
2023-05-25T18:32:06.777Z,707.22
2023-05-25T18:34:34.085Z,690.53
2023-05-25T18:37:00.936Z,688.13
2023-05-25T18:39:27.852Z,688.15
2023-05-25T18:41:54.849Z,708.15
2023-05-25T18:44:21.767Z,694.35
2023-05-25T18:46:51.612Z,674.38
2023-05-25T18:49:18.960Z,680.83
2023-05-25T18:51:45.973Z,682.80
2023-05-25T18:54:12.796Z,674.05
2023-05-25T18:56:39.571Z,693.47
2023-05-25T18:59:06.494Z,681.65
2023-05-25T19:01:33.421Z,680.42
2023-05-25T19:04:00.472Z,677.45
2023-05-25T19:06:27.388Z,670.95
2023-05-25T19:08:55.358Z,657.15
2023-05-25T19:11:22.418Z,690.22
2023-05-25T19:13:49.269Z,656.03
2023-05-25T19:16:16.163Z,667.05
2023-05-25T19:18:42.973Z,610.58
2023-05-25T19:21:09.874Z,651.83
2023-05-25T19:23:36.763Z,649.00
2023-05-25T19:26:03.565Z,650.10
2023-05-25T19:28:30.561Z,614.58
2023-05-25T19:30:57.406Z,610.35
2023-05-25T19:33:24.297Z,627.20
2023-05-25T19:35:51.432Z,608.10
2023-05-25T19:38:18.455Z,616.88
2023-05-25T19:40:45.753Z,599.88
2023-05-25T19:43:12.632Z,604.95
2023-05-25T19:45:39.475Z,603.35
2023-05-25T19:48:06.381Z,592.53
2023-05-25T19:50:33.335Z,608.85
2023-05-25T19:53:00.297Z,520.60
2023-05-25T19:55:27.393Z,607.85
2023-05-25T19:57:54.213Z,608.00
2023-05-25T20:00:26.524Z,616.10
2023-05-25T20:02:54.249Z,620.05
2023-05-25T20:05:21.268Z,618.38
2023-05-25T20:07:48.185Z,629.35
2023-05-25T20:10:15.057Z,622.20
2023-05-25T20:12:41.928Z,616.30
2023-05-25T20:15:09.037Z,615.90
2023-05-25T20:17:36.065Z,619.17
2023-05-25T20:20:05.150Z,606.25
2023-05-25T20:22:33.098Z,615.70
2023-05-25T20:25:00.959Z,612.10
2023-05-25T20:27:27.967Z,607.33
2023-05-25T20:29:55.002Z,604.30
2023-05-25T20:32:22.058Z,608.50
2023-05-25T20:34:48.915Z,605.15
2023-05-25T20:37:15.904Z,604.38
2023-05-25T20:39:42.797Z,617.53
2023-05-25T20:42:10.280Z,613.35
2023-05-25T20:44:37.266Z,601.78
2023-05-25T20:47:04.575Z,606.25
2023-05-25T20:49:31.388Z,596.15
2023-05-25T20:51:58.236Z,597.45
2023-05-25T20:54:25.101Z,587.50
2023-05-25T20:56:52.085Z,595.35
2023-05-25T20:59:18.931Z,606.42
2023-05-25T21:01:46.111Z,603.72
2023-05-25T21:04:13.006Z,605.30
2023-05-25T21:06:40.099Z,601.63
2023-05-25T21:09:07.000Z,607.33
2023-05-25T21:11:33.797Z,603.60
2023-05-25T21:14:00.809Z,598.55
2023-05-25T21:16:27.658Z,607.05
2023-05-25T21:18:54.540Z,604.03
2023-05-25T21:21:21.301Z,593.92
2023-05-25T21:23:48.122Z,605.75
2023-05-25T21:26:14.914Z,603.15
2023-05-25T21:28:41.734Z,602.38
2023-05-25T21:31:08.655Z,600.58
2023-05-25T21:33:36.625Z,582.38
2023-05-25T21:36:03.881Z,589.17
2023-05-25T21:38:30.912Z,586.10
2023-05-25T21:40:58.732Z,591.97
2023-05-25T21:43:28.544Z,579.92
2023-05-25T21:45:55.439Z,591.25
2023-05-25T21:48:22.372Z,585.75
2023-05-25T21:50:52.479Z,585.85
2023-05-25T21:53:22.382Z,582.75
2023-05-25T21:55:49.519Z,582.55
2023-05-25T21:58:17.622Z,583.40
2023-05-25T22:00:44.750Z,579.90
2023-05-25T22:03:11.800Z,581.85
2023-05-25T22:05:38.819Z,577.70
2023-05-25T22:08:06.071Z,588.58
2023-05-25T22:10:32.937Z,575.55
2023-05-25T22:12:59.751Z,583.80
2023-05-25T22:15:26.603Z,581.67
2023-05-25T22:17:53.392Z,576.85
2023-05-25T22:20:20.322Z,590.72
2023-05-25T22:22:47.218Z,590.03
2023-05-25T22:25:14.487Z,591.42
2023-05-25T22:27:41.358Z,585.17
2023-05-25T22:30:08.772Z,593.15
2023-05-25T22:32:35.750Z,580.78
2023-05-25T22:35:02.893Z,577.65
2023-05-25T22:37:29.725Z,574.38
2023-05-25T22:39:57.395Z,574.65
2023-05-25T22:42:24.349Z,553.88
2023-05-25T22:44:51.458Z,539.78
2023-05-25T22:47:18.353Z,575.72
2023-05-25T22:49:45.357Z,577.50
2023-05-25T22:52:12.364Z,553.38
2023-05-25T22:54:39.323Z,545.55
2023-05-25T22:57:06.765Z,545.88
2023-05-25T22:59:33.726Z,567.10
2023-05-25T23:02:00.783Z,570.80
2023-05-25T23:04:27.718Z,574.97
2023-05-25T23:06:54.678Z,581.10
2023-05-25T23:09:21.524Z,585.00
2023-05-25T23:11:48.379Z,577.35
2023-05-25T23:14:15.305Z,584.33
2023-05-25T23:16:42.267Z,581.38
2023-05-25T23:19:09.196Z,574.17
2023-05-25T23:21:36.073Z,573.67
2023-05-25T23:24:02.942Z,575.47
2023-05-25T23:26:29.831Z,572.42
2023-05-25T23:28:56.689Z,576.55
2023-05-25T23:31:23.692Z,578.60
2023-05-25T23:33:50.569Z,573.58
2023-05-25T23:36:17.452Z,573.55
2023-05-25T23:38:45.155Z,580.75
2023-05-25T23:41:11.926Z,576.45
2023-05-25T23:43:38.946Z,584.65
2023-05-25T23:46:06.006Z,568.17
2023-05-25T23:48:32.884Z,563.33
2023-05-25T23:50:59.863Z,573.35
2023-05-25T23:53:26.874Z,575.97
2023-05-25T23:55:53.685Z,578.55
2023-05-25T23:58:20.598Z,582.13
